This is the latest recevied weather packets stored in our database for station/object OE-11349. If no packets are shown the sender has not sent any weather packets the latest 10 day(s).
| Time | Temp. | Humidity | Pressure | Rain* | Wind** | Luminosity | Snow |
|---|---|---|---|---|---|---|---|
| 1787973909 | 9.44° C | 84% | 853.8 hPa | - | - | 0 W/m² | - |
| 1787973081 | 9.44° C | 85% | 854 hPa | - | - | 0 W/m² | - |
| 1787972709 | 9.44° C | 82% | 853.9 hPa | - | - | 0 W/m² | - |
| 1787972109 | 9.44° C | 86% | 853.8 hPa | - | - | 0 W/m² | - |
| 1787971282 | 9.44° C | 84% | 853.8 hPa | - | - | 0 W/m² | - |
| 1787970909 | 9.44° C | 88% | 854 hPa | - | - | 0 W/m² | - |
| 1787970309 | 9.44° C | 92% | 853.8 hPa | - | - | 0 W/m² | - |
| 1787969481 | 9.44° C | 93% | 853.4 hPa | - | - | 0 W/m² | - |
| 1787969108 | 9.44° C | 94% | 853.4 hPa | - | - | 0 W/m² | - |
| 1787968509 | 10° C | 88% | 853.4 hPa | - | - | 0 W/m² | - |
| 1787967681 | 11.67° C | 74% | 853.3 hPa | - | - | 0 W/m² | - |
| 1787967309 | 12.22° C | 71% | 853.1 hPa | - | - | 0 W/m² | - |
| 1787966709 | 12.78° C | 72% | 852.6 hPa | - | - | 0 W/m² | - |
| 1787965882 | 13.33° C | 73% | 852.6 hPa | - | - | 0 W/m² | - |
| 1787964909 | 13.89° C | 74% | 852.3 hPa | - | - | 0 W/m² | - |
| 1787964082 | 14.44° C | 75% | 852.2 hPa | - | - | 0 W/m² | - |
| 1787963709 | 15° C | 75% | 852.2 hPa | - | - | 0 W/m² | - |
| 1787963108 | 15° C | 74% | 852.1 hPa | - | - | 0 W/m² | - |
| 1787962281 | 15.56° C | 72% | 851.7 hPa | - | - | 0 W/m² | - |
| 1787961908 | 15.56° C | 71% | 851.7 hPa | - | - | 0 W/m² | - |
| 1787961309 | 15.56° C | 71% | 852 hPa | - | - | 0 W/m² | - |
| 1787960482 | 15.56° C | 72% | 852 hPa | - | - | 0 W/m² | - |
| 1787960109 | 16.11° C | 67% | 851.9 hPa | - | - | 0 W/m² | - |
| 1787959508 | 16.67° C | 67% | 852.1 hPa | - | - | 0 W/m² | - |
| 1787958909 | 15.56° C | 77% | 852.1 hPa | - | - | 0 W/m² | - |
* Rain since midnight (hover to see other rain measurements)
** Current wind speed in m/s (hover to see current wind gust speed)